Time;durP1;ratioP1;P1;durP2;ratioP2;P2;SDS_P1;SDS_P2;PMS_P1;PMS_P2;Temp;Humidity;BMP_temperature;BMP_pressure;BME280_temperature;BME280_humidity;BME280_pressure;Samples;Min_cycle;Max_cycle;Signal;HPM_P1;HPM_P2
2022/01/16 00:01:42;;;;;;;4.33;2.20;;;;;;;1.42;49.54;102053.01;1776819;80;25711;-62
2022/01/16 00:06:33;;;;;;;5.72;2.33;;;;;;;1.43;49.57;102036.19;1777876;79;25915;-62
2022/01/16 00:09:00;;;;;;;6.70;2.47;;;;;;;1.44;49.53;102032.59;1778978;79;27463;-62
2022/01/16 00:11:27;;;;;;;3.72;2.40;;;;;;;1.42;49.15;102041.93;1780638;79;27193;-62
2022/01/16 00:13:55;;;;;;;5.33;1.95;;;;;;;1.39;49.05;102061.45;1780756;79;25786;-62
2022/01/16 00:16:23;;;;;;;5.45;2.40;;;;;;;1.41;49.14;102050.80;1782091;80;26114;-62
2022/01/16 00:18:55;;;;;;;8.70;2.10;;;;;;;1.42;48.95;102063.14;1779155;80;25746;-62
2022/01/16 00:21:28;;;;;;;6.83;2.92;;;;;;;1.40;49.09;102063.64;1740958;81;27410;-62
2022/01/16 00:23:55;;;;;;;11.00;2.65;;;;;;;1.39;48.60;102062.78;1798265;79;25794;-62
2022/01/16 00:26:24;;;;;;;7.50;1.98;;;;;;;1.40;48.96;102073.80;1813596;78;25662;-62
2022/01/16 00:28:52;;;;;;;9.68;2.35;;;;;;;1.44;48.76;102087.84;1801765;79;26802;-62
2022/01/16 00:31:21;;;;;;;8.38;2.62;;;;;;;1.42;48.51;102079.53;1797230;79;25764;-62
2022/01/16 00:33:49;;;;;;;5.95;2.30;;;;;;;1.39;48.63;102089.30;1773055;79;27532;-62
2022/01/16 00:36:19;;;;;;;6.80;2.65;;;;;;;1.40;48.50;102080.44;1769598;81;26379;-62
2022/01/16 00:38:49;;;;;;;4.90;2.60;;;;;;;1.42;48.37;102078.20;1769504;80;25826;-62
2022/01/16 00:41:18;;;;;;;9.78;2.70;;;;;;;1.44;48.44;102083.86;1769069;80;26092;-62
2022/01/16 00:43:47;;;;;;;6.08;2.15;;;;;;;1.43;48.30;102084.77;1769704;80;25702;-62
2022/01/16 00:46:14;;;;;;;9.38;3.35;;;;;;;1.41;48.01;102083.94;1775481;80;28069;-62
2022/01/16 00:48:41;;;;;;;5.00;2.15;;;;;;;1.40;47.97;102075.13;1779321;80;25771;-62
2022/01/16 00:51:09;;;;;;;9.05;2.72;;;;;;;1.39;48.11;102072.53;1785132;80;25669;-62
2022/01/16 00:53:42;;;;;;;9.88;4.37;;;;;;;1.37;48.16;102092.45;1785484;80;26108;-62
2022/01/16 00:56:08;;;;;;;7.80;2.90;;;;;;;1.39;48.27;102091.09;1787471;80;25676;-62
2022/01/16 00:58:37;;;;;;;12.03;3.22;;;;;;;1.39;47.88;102100.38;1790388;79;27472;-62
2022/01/16 01:01:04;;;;;;;9.93;2.60;;;;;;;1.38;48.20;102129.98;1790664;79;25860;-62
2022/01/16 01:03:36;;;;;;;8.93;2.80;;;;;;;1.39;48.27;102118.47;1786426;80;25473;-62
2022/01/16 01:06:04;;;;;;;7.83;2.45;;;;;;;1.42;48.34;102092.31;1779301;79;26045;-62
2022/01/16 01:08:32;;;;;;;10.00;2.25;;;;;;;1.42;47.85;102104.72;1774443;79;25684;-62
2022/01/16 01:11:07;;;;;;;10.82;2.62;;;;;;;1.40;48.09;102082.20;1774674;80;28147;-62
2022/01/16 01:13:43;;;;;;;5.83;2.52;;;;;;;1.41;47.63;102065.38;1774208;80;25865;-62
2022/01/16 01:16:03;;;;;;;9.30;3.08;;;;;;;1.42;47.81;102121.95;1773655;80;25751;-62
2022/01/16 01:18:35;;;;;;;6.42;2.45;;;;;;;1.44;47.81;102105.08;1765570;80;26080;-62
2022/01/16 01:21:05;;;;;;;6.67;2.67;;;;;;;1.41;47.44;102024.28;1709095;83;25777;-63
2022/01/16 01:23:31;;;;;;;9.78;2.62;;;;;;;1.39;47.58;101991.66;1711743;82;27940;-62
2022/01/16 01:25:58;;;;;;;10.10;2.67;;;;;;;1.41;47.77;101961.97;1720201;82;26128;-62
2022/01/16 01:28:25;;;;;;;10.32;2.58;;;;;;;1.40;47.85;101906.75;1735085;82;25767;-63
2022/01/16 01:30:52;;;;;;;10.78;2.95;;;;;;;1.40;48.01;101932.38;1740026;82;26737;-63
2022/01/16 01:33:21;;;;;;;4.53;2.05;;;;;;;1.36;47.69;101931.61;1728085;82;25805;-63
2022/01/16 01:35:51;;;;;;;9.95;3.40;;;;;;;1.35;47.85;101955.06;1724620;82;27541;-63
2022/01/16 01:38:20;;;;;;;7.10;2.77;;;;;;;1.35;48.14;101986.02;1723745;83;25789;-63
2022/01/16 01:40:48;;;;;;;7.30;2.30;;;;;;;1.30;48.18;102005.19;1725954;82;25758;-62
2022/01/16 01:51:44;;;;;;;7.37;2.60;;;;;;;1.23;48.39;102048.24;1729427;83;25734;-62
2022/01/16 01:54:07;;;;;;;7.55;3.22;;;;;;;1.21;48.48;102029.70;1728827;82;25796;-61
2022/01/16 01:56:37;;;;;;;6.78;2.30;;;;;;;1.20;48.46;102033.30;1729225;82;28302;-61
2022/01/16 01:59:06;;;;;;;9.45;2.92;;;;;;;1.21;48.42;102026.20;1729460;83;25816;-61
2022/01/16 02:01:34;;;;;;;5.12;2.62;;;;;;;1.20;48.47;102028.00;1729518;83;28187;-62
2022/01/16 02:04:01;;;;;;;7.30;2.37;;;;;;;1.20;48.48;102041.25;1732034;82;25986;-62
2022/01/16 02:06:31;;;;;;;14.10;3.15;;;;;;;1.18;48.40;102043.07;1732502;82;25767;-62
2022/01/16 02:09:04;;;;;;;9.50;2.95;;;;;;;1.16;48.20;102030.78;1732318;82;26043;-61
2022/01/16 02:11:32;;;;;;;7.45;2.95;;;;;;;1.15;48.17;102036.52;1734912;81;25647;-62
2022/01/16 02:28:37;;;;;;;6.03;2.95;;;;;;;1.19;48.12;102068.67;1739378;82;28356;-62
2022/01/16 02:36:50;;;;;;;6.40;2.35;;;;;;;1.17;47.97;102057.67;1734122;82;26120;-62
2022/01/16 02:38:48;;;;;;;6.05;2.33;;;;;;;1.15;48.11;102056.41;1693894;83;27354;-61
2022/01/16 02:41:16;;;;;;;7.55;2.00;;;;;;;1.15;48.03;102051.09;1741253;81;27491;-62
2022/01/16 02:43:48;;;;;;;4.70;2.40;;;;;;;1.17;47.86;102067.84;1758711;81;25867;-62
2022/01/16 02:48:54;;;;;;;6.35;2.42;;;;;;;1.18;47.75;102073.99;1748463;81;26101;-62
2022/01/16 02:51:19;;;;;;;7.08;2.20;;;;;;;1.16;47.46;102074.52;1721983;82;25826;-62
2022/01/16 02:53:48;;;;;;;8.10;2.47;;;;;;;1.16;47.66;102081.14;1725879;83;28148;-62
2022/01/16 02:56:17;;;;;;;4.60;1.80;;;;;;;1.15;47.43;102091.33;1722781;82;25820;-62
2022/01/16 02:58:46;;;;;;;6.83;2.47;;;;;;;1.15;47.43;102088.21;1728208;83;25852;-62
2022/01/16 03:01:14;;;;;;;5.60;2.02;;;;;;;1.17;47.59;102090.80;1729102;83;26044;-62
2022/01/16 03:03:43;;;;;;;3.92;1.92;;;;;;;1.16;47.65;102082.00;1728727;83;25852;-62
2022/01/16 03:06:09;;;;;;;7.60;2.20;;;;;;;1.22;47.78;102096.86;1729026;83;27440;-62
2022/01/16 03:12:41;;;;;;;7.75;2.60;;;;;;;1.16;47.07;102087.30;1805110;78;25771;-63
2022/01/16 03:15:08;;;;;;;3.83;1.98;;;;;;;1.13;47.24;102094.00;1808185;79;26106;-62
2022/01/16 03:17:41;;;;;;;7.03;2.52;;;;;;;1.17;47.23;102089.48;1808492;79;25726;-63
2022/01/16 03:22:56;;;;;;;5.45;2.08;;;;;;;1.17;46.84;102090.37;1808295;79;25986;-63
2022/01/16 03:25:26;;;;;;;4.87;2.08;;;;;;;1.17;46.97;102088.16;1792145;79;25749;-63
2022/01/16 03:27:53;;;;;;;6.85;2.08;;;;;;;1.12;46.78;102097.56;1793430;79;26079;-63
2022/01/16 03:30:22;;;;;;;6.50;3.15;;;;;;;1.15;47.26;102089.53;1779486;80;26722;-63
2022/01/16 03:32:48;;;;;;;7.45;2.30;;;;;;;1.19;47.32;102088.55;1779368;80;27464;-63
2022/01/16 03:35:15;;;;;;;5.65;2.50;;;;;;;1.19;47.09;102095.17;1779459;80;25742;-63
2022/01/16 03:37:42;;;;;;;6.05;2.35;;;;;;;1.15;46.93;102090.86;1777607;80;25558;-63
2022/01/16 03:40:11;;;;;;;4.28;1.70;;;;;;;1.13;46.87;102091.35;1781628;80;26091;-63
2022/01/16 03:42:42;;;;;;;8.65;3.27;;;;;;;1.12;47.12;102098.89;1759892;80;25954;-63
2022/01/16 03:45:11;;;;;;;3.62;1.87;;;;;;;1.13;47.12;102092.67;1745864;80;27448;-63
2022/01/16 03:47:37;;;;;;;6.72;2.42;;;;;;;1.14;47.15;102089.59;1743601;82;25758;-63
2022/01/16 03:50:08;;;;;;;6.65;2.33;;;;;;;1.15;46.96;102096.16;1743702;82;25743;-64
2022/01/16 03:52:36;;;;;;;6.33;2.10;;;;;;;1.12;46.95;102083.45;1755507;80;27311;-63
2022/01/16 03:55:07;;;;;;;3.80;2.27;;;;;;;1.11;46.82;102085.25;1765122;81;25760;-64
2022/01/16 03:57:36;;;;;;;7.30;2.62;;;;;;;1.10;46.75;102092.78;1765296;80;27681;-63
2022/01/16 04:00:07;;;;;;;9.00;2.85;;;;;;;1.14;47.03;102097.06;1764051;81;25770;-63
2022/01/16 04:02:34;;;;;;;6.65;2.50;;;;;;;1.15;47.01;102092.19;1759600;80;25778;-63
2022/01/16 04:05:01;;;;;;;11.53;3.17;;;;;;;1.18;47.13;102096.52;1763494;80;26114;-63
2022/01/16 04:07:33;;;;;;;5.12;2.33;;;;;;;1.18;47.08;102104.48;1766167;80;25758;-62
2022/01/16 04:09:56;;;;;;;6.05;2.30;;;;;;;1.13;46.74;102114.34;1770182;80;27455;-63
2022/01/16 04:12:25;;;;;;;6.87;2.50;;;;;;;1.11;46.91;102111.75;1769839;79;25426;-62
2022/01/16 04:17:24;;;;;;;11.05;3.08;;;;;;;1.09;46.74;102127.67;1772595;80;26484;-62
2022/01/16 04:19:52;;;;;;;7.67;2.35;;;;;;;1.07;47.00;102125.55;1771549;80;25602;-62
2022/01/16 04:22:21;;;;;;;9.25;2.45;;;;;;;1.09;47.15;102133.45;1770079;81;27566;-62
2022/01/16 04:24:49;;;;;;;9.48;2.40;;;;;;;1.12;47.09;102133.34;1777950;79;25845;-63
2022/01/16 04:27:15;;;;;;;5.53;2.30;;;;;;;1.12;47.14;102139.11;1781001;79;25735;-63
2022/01/16 04:29:43;;;;;;;7.37;2.98;;;;;;;1.11;47.04;102128.98;1769797;81;26834;-62
2022/01/16 04:32:11;;;;;;;5.83;2.50;;;;;;;1.15;46.94;102137.25;1769109;81;25805;-63
2022/01/16 04:34:42;;;;;;;7.85;3.12;;;;;;;1.11;46.82;102134.28;1764272;79;28109;-63
2022/01/16 04:37:14;;;;;;;9.58;2.65;;;;;;;1.07;46.84;102136.15;1770007;81;25797;-62
2022/01/16 04:39:48;;;;;;;11.38;3.50;;;;;;;1.03;47.11;102138.92;1769859;79;25787;-62
2022/01/16 04:44:58;;;;;;;11.18;3.37;;;;;;;0.97;47.29;102136.41;1777845;80;25720;-62
2022/01/16 04:47:26;;;;;;;9.38;3.70;;;;;;;0.92;47.87;102147.12;1744507;81;27567;-62
2022/01/16 04:49:53;;;;;;;12.20;3.25;;;;;;;0.84;48.11;102147.78;1715305;82;25696;-63
2022/01/16 04:52:20;;;;;;;8.05;3.47;;;;;;;0.75;48.67;102147.58;1748011;81;25716;-62
2022/01/16 04:54:46;;;;;;;10.05;3.77;;;;;;;0.64;49.01;102149.63;1747878;82;26109;-62
2022/01/16 04:57:16;;;;;;;12.23;3.40;;;;;;;0.55;49.40;102149.38;1747933;81;25757;-62
2022/01/16 04:59:43;;;;;;;13.20;4.37;;;;;;;0.48;49.55;102145.14;1748011;82;27474;-62
2022/01/16 05:02:12;;;;;;;18.00;4.70;;;;;;;0.44;49.76;102143.03;1747881;80;25544;-62
2022/01/16 05:04:38;;;;;;;12.43;4.10;;;;;;;0.39;49.80;102135.20;1739212;82;25771;-61
2022/01/16 05:07:08;;;;;;;6.05;3.10;;;;;;;0.38;49.98;102132.59;1745358;82;26767;-62
2022/01/16 05:09:35;;;;;;;10.80;4.08;;;;;;;0.37;50.15;102132.17;1746340;81;25734;-62
2022/01/16 05:12:10;;;;;;;8.45;4.03;;;;;;;0.37;50.24;102133.50;1748037;82;27479;-62
2022/01/16 05:17:22;;;;;;;13.50;4.15;;;;;;;0.30;50.53;102138.95;1762880;81;25943;-62
2022/01/16 05:19:49;;;;;;;9.18;3.72;;;;;;;0.31;50.55;102135.37;1762015;81;26207;-62
2022/01/16 05:22:16;;;;;;;8.83;4.58;;;;;;;0.29;50.55;102133.23;1762824;80;26081;-62
2022/01/16 05:24:47;;;;;;;14.53;4.33;;;;;;;0.28;50.64;102138.11;1749027;81;27580;-63
2022/01/16 05:27:14;;;;;;;13.65;6.30;;;;;;;0.27;50.64;102132.86;1745930;81;26557;-62
2022/01/16 05:29:41;;;;;;;16.87;5.70;;;;;;;0.25;50.64;102130.69;1766092;81;25821;-62
2022/01/16 05:32:08;;;;;;;15.80;6.22;;;;;;;0.25;50.46;102127.58;1762158;80;26095;-62
2022/01/16 05:34:35;;;;;;;17.60;5.22;;;;;;;0.27;50.58;102132.86;1762122;81;26412;-62
2022/01/16 05:37:01;;;;;;;9.20;4.60;;;;;;;0.25;50.63;102140.81;1762488;81;27551;-62
2022/01/16 05:39:28;;;;;;;11.65;5.05;;;;;;;0.26;50.85;102151.82;1762307;81;25711;-63
2022/01/16 05:41:58;;;;;;;18.95;4.87;;;;;;;0.28;51.06;102147.38;1746460;81;25740;-62
2022/01/16 05:44:25;;;;;;;11.45;4.87;;;;;;;0.28;51.13;102152.66;1742364;81;26106;-62
2022/01/16 05:46:52;;;;;;;14.98;4.60;;;;;;;0.29;51.15;102154.84;1740569;81;25821;-61
2022/01/16 05:49:20;;;;;;;17.02;7.95;;;;;;;0.26;51.23;102149.17;1741829;82;27473;-62
2022/01/16 05:51:49;;;;;;;19.42;5.55;;;;;;;0.32;51.29;102149.49;1740235;81;25770;-62
2022/01/16 05:54:16;;;;;;;14.87;5.60;;;;;;;0.32;51.44;102156.11;1738819;82;25797;-62
2022/01/16 05:56:43;;;;;;;15.88;5.45;;;;;;;0.30;51.39;102156.59;1731613;81;26163;-62
2022/01/16 05:59:09;;;;;;;19.57;5.17;;;;;;;0.30;51.52;102148.65;1740098;81;25837;-61
2022/01/16 06:01:36;;;;;;;14.13;5.35;;;;;;;0.31;51.51;102147.75;1727108;82;27488;-61
2022/01/16 06:04:04;;;;;;;17.25;6.28;;;;;;;0.35;51.57;102161.78;1719909;83;25790;-61
2022/01/16 06:06:34;;;;;;;19.00;5.80;;;;;;;0.35;51.52;102159.13;1728922;82;25752;-62
2022/01/16 06:09:00;;;;;;;14.63;5.20;;;;;;;0.33;51.72;102166.23;1730366;82;26093;-61
2022/01/16 06:11:27;;;;;;;19.17;5.95;;;;;;;0.33;51.65;102168.87;1736454;82;25704;-62
2022/01/16 06:13:54;;;;;;;15.28;6.92;;;;;;;0.32;51.75;102177.28;1737398;82;27475;-61
2022/01/16 06:16:21;;;;;;;20.90;7.25;;;;;;;0.34;52.00;102179.89;1735320;82;25770;-62
2022/01/16 06:18:48;;;;;;;22.50;7.10;;;;;;;0.38;51.96;102180.25;1726716;83;25710;-62
2022/01/16 06:21:14;;;;;;;17.87;6.55;;;;;;;0.42;51.82;102185.87;1726764;82;26078;-62
2022/01/16 06:23:41;;;;;;;11.68;5.72;;;;;;;0.39;51.83;102189.94;1735354;82;25901;-62
2022/01/16 06:26:10;;;;;;;18.50;6.35;;;;;;;0.34;51.89;102183.86;1737535;82;27457;-61
2022/01/16 06:28:37;;;;;;;18.52;6.55;;;;;;;0.31;51.91;102187.45;1736731;81;25482;-62
2022/01/16 06:31:04;;;;;;;15.88;6.78;;;;;;;0.29;51.86;102200.73;1737106;82;25767;-61
2022/01/16 06:33:30;;;;;;;20.70;7.08;;;;;;;0.29;51.96;102194.55;1737165;82;26146;-62
2022/01/16 06:35:57;;;;;;;17.80;6.72;;;;;;;0.35;51.90;102198.41;1735990;82;25731;-62
2022/01/16 06:38:24;;;;;;;19.70;6.85;;;;;;;0.44;51.87;102195.55;1735644;82;27480;-62
2022/01/16 06:40:51;;;;;;;16.93;7.10;;;;;;;0.52;51.93;102199.78;1736839;82;25748;-60
2022/01/16 06:43:17;;;;;;;23.47;7.53;;;;;;;0.57;51.70;102196.56;1745825;81;25782;-62
2022/01/16 06:45:44;;;;;;;18.67;6.37;;;;;;;0.58;51.67;102195.66;1737742;82;26806;-62
2022/01/16 06:48:11;;;;;;;18.65;7.25;;;;;;;0.55;51.39;102200.58;1753072;81;25676;-62
2022/01/16 06:50:38;;;;;;;18.70;8.10;;;;;;;0.53;51.68;102200.20;1743148;81;29569;-62
2022/01/16 06:53:05;;;;;;;16.40;7.53;;;;;;;0.52;51.92;102204.61;1735340;82;25715;-62
2022/01/16 06:55:32;;;;;;;23.40;7.87;;;;;;;0.54;51.91;102205.45;1741118;82;25889;-61
2022/01/16 06:57:59;;;;;;;21.42;7.03;;;;;;;0.58;51.85;102211.08;1752108;81;26170;-62
2022/01/16 07:00:26;;;;;;;18.65;7.05;;;;;;;0.57;51.61;102204.50;1752697;80;25670;-61
2022/01/16 07:02:54;;;;;;;24.18;7.17;;;;;;;0.59;51.78;102208.85;1789495;79;27359;-61
2022/01/16 07:05:23;;;;;;;25.90;8.95;;;;;;;0.61;51.85;102212.34;1798676;79;25826;-61
2022/01/16 07:07:49;;;;;;;27.98;7.97;;;;;;;0.57;51.84;102213.34;1733894;82;25467;-62
2022/01/16 07:10:16;;;;;;;23.77;9.30;;;;;;;0.56;51.86;102214.67;1731955;82;26066;-61
2022/01/16 07:12:43;;;;;;;19.55;9.40;;;;;;;0.62;52.08;102216.73;1731689;82;25805;-62
2022/01/16 07:15:13;;;;;;;18.40;9.08;;;;;;;0.67;51.84;102213.13;1732005;81;28662;-62
2022/01/16 07:17:42;;;;;;;21.80;8.53;;;;;;;0.66;51.72;102205.61;1726573;82;25811;-61
2022/01/16 07:20:11;;;;;;;27.98;9.83;;;;;;;0.67;51.82;102212.66;1724188;82;25773;-62
2022/01/16 07:22:38;;;;;;;19.57;8.45;;;;;;;0.66;51.71;102209.59;1724462;83;26084;-61
2022/01/16 07:25:06;;;;;;;24.85;9.00;;;;;;;0.73;51.66;102207.67;1740391;81;25755;-62
2022/01/16 07:27:33;;;;;;;17.00;8.50;;;;;;;0.75;51.62;102209.83;1732632;81;27472;-62
2022/01/16 07:30:02;;;;;;;23.67;10.13;;;;;;;0.76;51.58;102201.84;1734000;82;25696;-62
2022/01/16 07:32:32;;;;;;;21.35;8.78;;;;;;;0.80;51.46;102202.63;1731442;82;25802;-62
2022/01/16 07:34:59;;;;;;;21.05;7.97;;;;;;;0.83;51.44;102199.92;1731783;82;26099;-62
2022/01/16 07:37:26;;;;;;;21.27;10.13;;;;;;;0.83;51.38;102202.56;1731585;81;25841;-61
2022/01/16 07:39:53;;;;;;;28.40;8.93;;;;;;;0.83;51.17;102206.98;1734534;82;27494;-61
2022/01/16 07:42:24;;;;;;;28.00;8.98;;;;;;;0.80;51.25;102210.58;1734593;81;25852;-62
2022/01/16 07:44:51;;;;;;;31.30;9.40;;;;;;;0.87;51.44;102209.52;1730180;82;26029;-62
2022/01/16 07:47:18;;;;;;;31.05;10.32;;;;;;;0.90;51.22;102209.45;1726335;83;26116;-62
2022/01/16 07:49:45;;;;;;;31.50;10.45;;;;;;;0.92;51.24;102206.75;1726320;82;25748;-63
2022/01/16 07:52:12;;;;;;;20.70;9.83;;;;;;;0.97;51.11;102211.94;1726512;83;27618;-62
2022/01/16 07:54:39;;;;;;;28.38;10.38;;;;;;;1.06;50.90;102217.00;1726334;83;25765;-61
2022/01/16 07:57:08;;;;;;;42.67;11.70;;;;;;;1.13;51.00;102209.77;1775871;80;25443;-62
2022/01/16 07:59:36;;;;;;;24.10;9.63;;;;;;;1.18;50.44;102208.75;1767118;80;26116;-61
2022/01/16 08:02:04;;;;;;;20.75;9.23;;;;;;;1.24;50.07;102207.72;1772397;80;25874;-62
2022/01/16 08:04:31;;;;;;;35.08;10.00;;;;;;;1.32;50.09;102209.71;1771925;80;27439;-62
2022/01/16 08:07:03;;;;;;;28.45;9.35;;;;;;;1.39;49.77;102210.42;1764673;81;25783;-63
2022/01/16 08:09:30;;;;;;;20.52;8.93;;;;;;;1.40;49.73;102210.81;1770664;80;25735;-61
2022/01/16 08:11:58;;;;;;;24.47;9.80;;;;;;;1.45;49.24;102208.03;1774215;80;26097;-62
2022/01/16 08:14:28;;;;;;;23.50;9.28;;;;;;;1.50;49.12;102208.33;1774356;80;25804;-62
2022/01/16 08:16:56;;;;;;;16.65;7.22;;;;;;;1.54;49.11;102205.12;1774711;80;28162;-62
2022/01/16 08:19:24;;;;;;;18.10;7.72;;;;;;;1.58;48.26;102204.59;1774319;80;25813;-62
2022/01/16 08:21:52;;;;;;;20.48;7.45;;;;;;;1.66;48.70;102194.66;1767143;80;25708;-62
2022/01/16 08:24:19;;;;;;;21.05;7.35;;;;;;;1.72;47.90;102198.45;1769495;79;26087;-62
2022/01/16 08:26:46;;;;;;;25.80;6.60;;;;;;;1.73;47.22;102196.22;1814104;79;25725;-61
2022/01/16 08:29:14;;;;;;;12.85;5.03;;;;;;;1.78;47.26;102197.41;1774596;78;27441;-62
2022/01/16 08:31:41;;;;;;;21.42;6.55;;;;;;;1.85;47.27;102202.48;1774421;79;25895;-61
2022/01/16 08:34:10;;;;;;;15.90;5.85;;;;;;;1.96;46.79;102206.17;1771545;80;25688;-61
2022/01/16 08:36:40;;;;;;;21.93;6.60;;;;;;;1.95;45.98;102207.08;1774576;80;26825;-61
2022/01/16 08:39:06;;;;;;;14.33;5.83;;;;;;;2.02;46.84;102202.44;1774403;80;25735;-61
2022/01/16 08:41:33;;;;;;;12.98;5.10;;;;;;;2.10;46.45;102196.47;1772231;80;27426;-61
2022/01/16 08:44:01;;;;;;;12.33;4.83;;;;;;;2.16;46.01;102189.63;1778887;80;25527;-61
2022/01/16 08:46:28;;;;;;;23.87;6.95;;;;;;;2.21;45.35;102193.48;1782008;79;25959;-61
2022/01/16 08:48:58;;;;;;;16.15;5.78;;;;;;;2.27;45.82;102189.77;1756891;80;26106;-61
2022/01/16 08:51:26;;;;;;;15.43;5.25;;;;;;;2.33;44.87;102189.09;1740234;80;25491;-61
2022/01/16 08:53:52;;;;;;;20.50;5.75;;;;;;;2.34;45.00;102198.80;1737490;82;27525;-61
2022/01/16 08:56:20;;;;;;;13.88;5.90;;;;;;;2.41;46.14;102199.49;1736988;82;25828;-61
2022/01/16 08:58:48;;;;;;;15.75;5.97;;;;;;;2.55;45.80;102192.41;1737745;81;25754;-62
2022/01/16 09:01:15;;;;;;;18.57;7.20;;;;;;;2.59;44.64;102195.84;1737214;82;26086;-62
2022/01/16 09:03:42;;;;;;;14.05;4.20;;;;;;;2.62;44.43;102192.63;1737864;82;25717;-62
2022/01/16 09:06:09;;;;;;;11.28;3.77;;;;;;;2.69;44.25;102186.66;1758446;79;27459;-62
2022/01/16 09:08:36;;;;;;;22.10;9.40;;;;;;;2.69;44.27;102177.36;1776920;80;25831;-62
2022/01/16 09:11:04;;;;;;;14.13;4.70;;;;;;;2.68;43.05;102180.92;1776033;79;26924;-61
2022/01/16 09:13:31;;;;;;;13.60;3.33;;;;;;;2.61;43.44;102176.73;1774439;80;26836;-61
2022/01/16 09:16:00;;;;;;;12.90;3.70;;;;;;;2.58;42.13;102167.53;1774721;80;25747;-61
2022/01/16 09:18:28;;;;;;;9.58;4.05;;;;;;;2.59;42.95;102159.53;1774480;79;27449;-62
2022/01/16 09:20:56;;;;;;;11.75;3.98;;;;;;;2.91;43.56;102156.72;1774350;80;25669;-61
2022/01/16 09:23:25;;;;;;;8.98;3.55;;;;;;;3.36;42.76;102147.16;1739508;80;25701;-61
2022/01/16 09:25:53;;;;;;;17.35;3.30;;;;;;;4.01;42.39;102153.59;1739226;81;26048;-62
2022/01/16 09:28:22;;;;;;;16.20;3.83;;;;;;;3.94;39.79;102145.44;1742796;80;25766;-61
2022/01/16 09:30:49;;;;;;;10.28;5.03;;;;;;;3.82;40.03;102136.58;1740448;80;27406;-62
2022/01/16 09:33:16;;;;;;;14.43;4.85;;;;;;;3.71;40.69;102143.20;1736691;82;25784;-61
2022/01/16 09:35:44;;;;;;;14.07;4.42;;;;;;;3.69;40.99;102132.19;1741139;80;25733;-62
2022/01/16 09:38:12;;;;;;;9.58;4.70;;;;;;;4.15;41.61;102138.41;1736076;82;26118;-62
2022/01/16 09:40:38;;;;;;;13.70;5.05;;;;;;;4.47;40.41;102131.37;1737371;81;25464;-62
2022/01/16 09:43:05;;;;;;;13.43;4.30;;;;;;;4.26;39.45;102126.45;1739266;82;27473;-62
2022/01/16 09:45:32;;;;;;;13.98;4.33;;;;;;;4.31;39.49;102114.69;1739829;82;25711;-62
2022/01/16 09:48:01;;;;;;;14.63;4.17;;;;;;;4.85;38.84;102100.42;1786640;79;25781;-62
2022/01/16 09:50:28;;;;;;;14.90;4.45;;;;;;;4.75;37.69;102113.75;1785376;79;26108;-62
2022/01/16 09:52:59;;;;;;;11.08;4.10;;;;;;;4.98;37.80;102091.91;1785329;80;25744;-62
2022/01/16 09:55:26;;;;;;;11.63;4.08;;;;;;;5.52;37.50;102090.80;1785053;80;27538;-62
2022/01/16 09:57:56;;;;;;;12.10;4.30;;;;;;;6.46;37.91;102087.27;1785181;80;25461;-62
2022/01/16 10:00:25;;;;;;;17.57;5.08;;;;;;;7.42;36.68;102085.85;1784727;79;25704;-62
2022/01/16 10:02:53;;;;;;;13.18;4.80;;;;;;;7.93;33.68;102089.75;1780377;79;26139;-62
2022/01/16 10:05:34;;;;;;;18.92;5.00;;;;;;;8.32;34.79;102078.17;1780585;79;25724;-62
2022/01/16 10:08:06;;;;;;;11.83;5.22;;;;;;;8.18;33.73;102078.97;1780328;79;27470;-62
2022/01/16 10:10:36;;;;;;;12.10;5.15;;;;;;;7.71;32.68;102092.77;1745207;81;25838;-62
2022/01/16 10:13:37;;;;;;;16.60;5.80;;;;;;;8.13;32.66;102093.12;1738935;82;25708;-61
2022/01/16 10:16:01;;;;;;;21.48;6.20;;;;;;;7.86;34.07;102082.13;1743075;82;26121;-62
2022/01/16 10:18:38;;;;;;;16.23;5.78;;;;;;;8.40;32.22;102079.92;1744958;82;25723;-62
2022/01/16 10:21:06;;;;;;;16.67;6.30;;;;;;;8.63;31.85;102072.38;1744929;82;28187;-62
2022/01/16 10:23:43;;;;;;;13.95;6.08;;;;;;;8.67;31.57;102064.52;1743240;82;25878;-62
2022/01/16 10:26:25;;;;;;;17.77;7.08;;;;;;;8.41;31.90;102079.46;1711942;82;25831;-61
2022/01/16 10:28:52;;;;;;;17.70;6.78;;;;;;;8.70;31.83;102056.76;1735684;82;25742;-61
2022/01/16 10:31:28;;;;;;;16.67;7.67;;;;;;;8.15;32.34;102061.25;1735777;82;26380;-62
2022/01/16 10:33:56;;;;;;;19.23;7.90;;;;;;;7.95;33.15;102061.06;1742230;80;27442;-61
2022/01/16 10:36:36;;;;;;;19.77;8.10;;;;;;;7.47;33.47;102054.35;1788931;78;25732;-62
2022/01/16 10:39:10;;;;;;;14.70;7.00;;;;;;;7.49;34.12;102057.78;1788868;80;25702;-62
2022/01/16 10:41:38;;;;;;;;;;;;;;;7.57;33.67;102056.03;1793598;79;26842;-61
2022/01/16 10:44:30;;;;;;;20.32;7.65;;;;;;;7.50;33.71;102054.16;1802684;77;27329;-62
2022/01/16 10:46:57;;;;;;;18.70;7.33;;;;;;;8.34;34.21;102036.54;1802068;78;27461;-61
2022/01/16 10:49:26;;;;;;;14.53;7.08;;;;;;;9.44;34.00;102025.86;1794268;79;43333;-62
2022/01/16 10:52:09;;;;;;;19.67;8.43;;;;;;;10.13;33.77;102022.66;1793035;78;25460;-62
2022/01/16 10:54:42;;;;;;;21.55;7.60;;;;;;;10.86;31.60;102023.16;1789025;78;26108;-62
2022/01/16 10:57:25;;;;;;;25.17;8.90;;;;;;;10.82;30.49;102030.22;1795412;79;32696;-62
2022/01/16 11:00:06;;;;;;;17.60;8.85;;;;;;;10.61;29.61;102031.60;1772494;79;27540;-63
2022/01/16 11:02:35;;;;;;;22.75;8.58;;;;;;;10.44;29.95;102016.60;1791972;79;27058;-63
2022/01/16 11:05:12;;;;;;;22.85;9.00;;;;;;;10.71;30.98;102011.63;1793877;79;25665;-63
2022/01/16 11:07:40;;;;;;;20.70;8.88;;;;;;;11.28;31.25;102003.58;1805528;79;26743;-63
2022/01/16 11:10:26;;;;;;;18.02;8.88;;;;;;;11.80;30.67;101991.78;1797025;78;25799;-63
2022/01/16 11:12:59;;;;;;;70.17;32.58;;;;;;;12.40;30.25;101999.44;1792686;79;27478;-63
2022/01/16 11:15:26;;;;;;;90.28;33.48;;;;;;;12.91;30.37;101986.00;1788276;79;26457;-63
2022/01/16 11:17:53;;;;;;;40.70;15.50;;;;;;;13.50;30.56;101982.70;1790472;79;25732;-64
2022/01/16 11:20:31;;;;;;;27.52;12.55;;;;;;;13.83;28.14;101980.04;1788047;79;26044;-63
2022/01/16 11:23:28;;;;;;;28.42;9.13;;;;;;;13.93;26.68;101987.25;1787416;80;25423;-63
2022/01/16 11:25:34;;;;;;;17.60;8.35;;;;;;;14.28;27.30;101964.97;1791813;79;28257;-63
2022/01/16 11:28:23;;;;;;;22.30;10.25;;;;;;;14.45;27.35;101972.13;1796003;78;25709;-62
2022/01/16 11:30:59;;;;;;;18.07;9.23;;;;;;;14.52;27.04;101966.54;1782312;79;25747;-63
2022/01/16 11:33:30;;;;;;;21.90;9.33;;;;;;;14.70;26.84;101963.62;1785432;79;26795;-63
2022/01/16 11:36:14;;;;;;;21.45;8.58;;;;;;;14.61;26.02;101971.16;1786148;80;25801;-63
2022/01/16 11:38:44;;;;;;;;;;;;;;;13.95;24.78;101966.82;1797956;79;27690;-64
2022/01/16 11:41:24;;;;;;;19.60;8.60;;;;;;;13.73;25.91;101959.64;1805934;78;25868;-63
2022/01/16 11:43:53;;;;;;;22.82;8.53;;;;;;;13.95;26.72;101954.64;1802322;79;25691;-63
2022/01/16 11:46:23;;;;;;;19.92;8.78;;;;;;;13.83;27.13;101960.60;1802504;77;26728;-63
2022/01/16 11:49:04;;;;;;;17.67;9.03;;;;;;;13.44;26.81;101958.38;1783358;79;25867;-63
2022/01/16 11:51:39;;;;;;;21.05;8.35;;;;;;;12.92;26.28;101960.72;1777832;80;27465;-63
2022/01/16 11:54:31;;;;;;;20.00;8.70;;;;;;;12.37;26.97;101954.63;1774593;80;26458;-64
2022/01/16 11:57:21;;;;;;;19.23;9.73;;;;;;;11.55;27.14;101960.77;1771732;80;25732;-63
2022/01/16 11:59:56;;;;;;;19.52;8.63;;;;;;;10.83;27.66;101952.03;1775497;79;26773;-62
2022/01/16 12:02:26;;;;;;;23.25;9.38;;;;;;;10.47;28.60;101941.08;1777596;80;25744;-62
2022/01/16 12:04:57;;;;;;;26.17;10.38;;;;;;;9.89;28.88;101940.52;1769388;81;27424;-62
2022/01/16 12:07:35;;;;;;;26.00;9.50;;;;;;;9.27;29.73;101949.04;1769263;81;25423;-62
2022/01/16 12:10:05;;;;;;;22.62;10.20;;;;;;;8.84;30.44;101935.17;1765696;80;25782;-62
2022/01/16 12:12:37;;;;;;;21.87;10.25;;;;;;;8.68;30.47;101936.14;1746710;80;27048;-62
2022/01/16 12:15:19;;;;;;;20.35;9.40;;;;;;;8.46;30.96;101936.11;1741012;80;25715;-62
2022/01/16 12:17:49;;;;;;;22.65;10.15;;;;;;;8.48;31.10;101940.06;1748486;81;27457;-62
2022/01/16 12:20:25;;;;;;;24.95;10.95;;;;;;;8.17;31.70;101939.67;1771958;81;25672;-62
2022/01/16 12:23:06;;;;;;;21.82;10.60;;;;;;;7.89;32.07;101937.29;1772110;80;25693;-62
2022/01/16 12:25:43;;;;;;;25.27;11.00;;;;;;;7.55;32.42;101944.61;1771009;80;26129;-62